createdAt,value
2019-05-17T00:00:07.269Z,36.98
2019-05-17T00:05:17.486Z,35.70
2019-05-17T00:10:26.488Z,36.30
2019-05-17T00:15:33.901Z,36.55
2019-05-17T00:21:01.558Z,34.13
2019-05-17T00:26:09.447Z,35.48
2019-05-17T00:31:17.306Z,35.43
2019-05-17T00:36:27.589Z,34.45
2019-05-17T00:41:37.300Z,31.75
2019-05-17T00:46:46.926Z,30.85
2019-05-17T00:51:56.608Z,31.97
2019-05-17T00:57:03.329Z,31.80
2019-05-17T01:02:11.102Z,32.38
2019-05-17T01:07:18.242Z,30.92
2019-05-17T01:12:27.133Z,31.20
2019-05-17T01:17:36.402Z,28.42
2019-05-17T01:22:44.255Z,28.45
2019-05-17T01:27:51.545Z,27.62
2019-05-17T01:32:59.041Z,26.80
2019-05-17T01:38:07.636Z,25.88
2019-05-17T01:43:16.666Z,24.65
2019-05-17T01:48:27.077Z,23.45
2019-05-17T01:53:36.443Z,24.87
2019-05-17T01:58:46.830Z,24.85
2019-05-17T02:03:53.608Z,25.35
2019-05-17T02:09:02.098Z,22.55
2019-05-17T02:14:16.374Z,24.30
2019-05-17T02:19:22.827Z,24.15
2019-05-17T02:24:31.965Z,54.30
2019-05-17T02:29:39.514Z,23.47
2019-05-17T02:34:47.847Z,24.60
2019-05-17T02:40:03.059Z,20.77
2019-05-17T02:45:05.902Z,22.55
2019-05-17T02:50:13.904Z,32.58
2019-05-17T02:55:23.359Z,29.70
2019-05-17T03:00:34.101Z,23.92
2019-05-17T03:05:43.111Z,20.12
2019-05-17T03:10:53.156Z,22.25
2019-05-17T03:15:58.196Z,50.45
2019-05-17T03:21:05.904Z,20.95
2019-05-17T03:26:14.235Z,20.02
2019-05-17T03:31:26.387Z,18.50
2019-05-17T03:36:35.511Z,18.52
2019-05-17T03:41:42.642Z,17.77
2019-05-17T03:46:52.952Z,19.07
2019-05-17T03:52:02.467Z,18.92
2019-05-17T03:57:09.082Z,18.25
2019-05-17T04:02:16.909Z,18.05
2019-05-17T04:07:28.126Z,18.15
2019-05-17T04:12:35.545Z,18.12
2019-05-17T04:17:44.290Z,17.17
2019-05-17T04:22:52.704Z,17.17
2019-05-17T04:28:02.813Z,16.85
2019-05-17T04:33:12.795Z,16.67
2019-05-17T04:38:19.108Z,15.93
2019-05-17T04:43:28.308Z,15.93
2019-05-17T04:48:36.113Z,15.53
2019-05-17T04:53:43.343Z,15.05
2019-05-17T04:58:54.226Z,15.20
2019-05-17T05:04:03.095Z,15.00
2019-05-17T05:09:12.603Z,15.08
2019-05-17T05:14:19.143Z,15.03
2019-05-17T05:19:28.364Z,16.15
2019-05-17T05:24:37.018Z,14.97
2019-05-17T05:29:45.087Z,15.10
2019-05-17T05:34:52.627Z,15.88
2019-05-17T05:40:02.100Z,15.38
2019-05-17T05:45:32.097Z,15.13
2019-05-17T05:50:39.108Z,14.68
2019-05-17T05:55:46.199Z,14.70
2019-05-17T06:00:54.123Z,14.43
2019-05-17T06:06:01.879Z,14.35
2019-05-17T06:11:12.118Z,14.58
2019-05-17T06:16:19.281Z,14.63
2019-05-17T06:21:27.095Z,14.13
2019-05-17T06:26:34.461Z,13.88
2019-05-17T06:31:43.295Z,13.38
2019-05-17T06:36:52.829Z,13.67
2019-05-17T06:42:02.569Z,13.97
2019-05-17T06:47:11.838Z,13.57
2019-05-17T06:52:17.694Z,13.17
2019-05-17T06:57:25.303Z,13.50
2019-05-17T07:02:35.830Z,11.80
2019-05-17T07:07:42.724Z,12.23
2019-05-17T07:12:55.983Z,12.90
2019-05-17T07:17:59.912Z,12.20
2019-05-17T07:23:07.587Z,12.40
2019-05-17T07:28:14.996Z,13.10
2019-05-17T07:33:23.490Z,12.68
2019-05-17T07:38:50.785Z,12.60
2019-05-17T07:44:00.273Z,12.82
2019-05-17T07:49:07.473Z,12.90
2019-05-17T07:54:14.875Z,14.50
2019-05-17T07:59:22.281Z,13.85
2019-05-17T08:04:30.110Z,14.25
2019-05-17T08:09:40.274Z,14.25
2019-05-17T08:14:45.965Z,14.83
2019-05-17T08:19:53.918Z,13.75
2019-05-17T08:25:01.099Z,14.75
2019-05-17T08:30:10.457Z,15.75
2019-05-17T08:40:25.091Z,18.75
2019-05-17T08:45:32.986Z,16.90
2019-05-17T08:50:41.370Z,17.75
2019-05-17T08:55:50.165Z,20.92
2019-05-17T09:01:00.024Z,19.57
2019-05-17T09:06:07.613Z,22.00
2019-05-17T09:11:15.152Z,28.32
2019-05-17T09:16:23.072Z,29.10
2019-05-17T09:21:31.370Z,19.52
2019-05-17T09:26:39.906Z,16.50
2019-05-17T09:31:52.070Z,15.13
2019-05-17T09:37:00.659Z,15.13
2019-05-17T09:42:10.333Z,15.05
2019-05-17T09:47:20.461Z,16.00
2019-05-17T09:52:29.447Z,16.13
2019-05-17T09:57:37.674Z,21.52
2019-05-17T10:02:45.637Z,16.50
2019-05-17T10:07:54.019Z,26.25
2019-05-17T10:13:02.254Z,16.90
2019-05-17T10:18:11.170Z,15.98
2019-05-17T10:23:19.671Z,15.20
2019-05-17T10:28:40.949Z,17.15
2019-05-17T10:33:49.515Z,15.00
2019-05-17T10:39:02.327Z,15.50
2019-05-17T10:44:10.378Z,16.70
2019-05-17T10:49:20.189Z,15.80
2019-05-17T10:54:30.119Z,16.82
2019-05-17T10:59:39.298Z,15.83
2019-05-17T11:04:46.727Z,16.57
2019-05-17T11:10:00.311Z,16.20
2019-05-17T11:15:11.789Z,14.35
2019-05-17T11:20:19.711Z,13.90
2019-05-17T11:25:27.340Z,21.12
2019-05-17T11:30:34.820Z,19.23
2019-05-17T11:35:42.345Z,18.27
2019-05-17T11:40:50.222Z,20.48
2019-05-17T11:45:57.990Z,18.48
2019-05-17T11:51:05.723Z,18.57
2019-05-17T11:56:13.672Z,17.73
2019-05-17T12:01:21.807Z,17.20
2019-05-17T12:06:29.803Z,18.75
2019-05-17T12:11:38.199Z,18.10
2019-05-17T12:16:52.752Z,19.27
2019-05-17T12:21:59.938Z,19.92
2019-05-17T12:27:07.697Z,19.95
2019-05-17T12:32:17.132Z,20.68
2019-05-17T12:37:23.948Z,20.10
2019-05-17T12:42:32.351Z,20.02
2019-05-17T12:47:40.703Z,20.40
2019-05-17T12:52:49.011Z,20.60
2019-05-17T12:57:56.277Z,21.33
2019-05-17T13:03:03.368Z,23.05
2019-05-17T13:08:10.663Z,21.17
2019-05-17T13:13:17.953Z,22.27
2019-05-17T13:18:25.337Z,19.90
2019-05-17T13:23:33.570Z,20.52
2019-05-17T13:29:00.921Z,20.52
2019-05-17T13:34:08.943Z,22.15
2019-05-17T13:39:16.974Z,21.40
2019-05-17T13:44:25.346Z,22.48
2019-05-17T13:49:33.435Z,23.73
2019-05-17T13:54:42.187Z,23.45
2019-05-17T13:59:49.704Z,25.48
2019-05-17T14:04:56.997Z,24.37
2019-05-17T14:10:04.938Z,24.12
2019-05-17T14:15:13.672Z,24.72
2019-05-17T14:20:22.286Z,26.02
2019-05-17T14:25:31.146Z,26.73
2019-05-17T14:30:39.979Z,26.80
2019-05-17T14:35:47.804Z,27.65
2019-05-17T14:41:10.410Z,26.95
2019-05-17T14:46:05.043Z,26.05
2019-05-17T14:51:13.405Z,25.50
2019-05-17T14:56:20.478Z,23.90
2019-05-17T15:12:28.355Z,25.43
2019-05-17T15:17:34.984Z,26.55
2019-05-17T15:22:40.820Z,27.02
2019-05-17T15:27:48.810Z,26.20
2019-05-17T15:32:55.757Z,25.60
2019-05-17T15:38:03.206Z,24.30
2019-05-17T15:43:10.346Z,24.67
2019-05-17T15:48:18.456Z,24.92
2019-05-17T15:53:26.913Z,24.60
2019-05-17T15:58:34.765Z,24.27
2019-05-17T16:03:42.734Z,24.15
2019-05-17T16:08:50.115Z,24.10
2019-05-17T16:13:58.268Z,25.37
2019-05-17T16:19:06.064Z,24.72
2019-05-17T16:24:14.469Z,24.87
2019-05-17T16:29:21.573Z,24.82
2019-05-17T16:34:29.219Z,25.05
2019-05-17T16:39:37.643Z,24.15
2019-05-17T16:44:46.198Z,23.92
2019-05-17T16:49:54.126Z,24.65
2019-05-17T16:55:02.133Z,25.27
2019-05-17T17:00:12.684Z,23.98
2019-05-17T17:05:20.467Z,24.52
2019-05-17T17:10:27.985Z,24.47
2019-05-17T17:15:36.962Z,24.87
2019-05-17T17:20:44.921Z,24.67
2019-05-17T17:25:52.576Z,23.90
2019-05-17T17:31:00.793Z,23.40
2019-05-17T17:36:07.852Z,24.75
2019-05-17T17:41:15.084Z,24.05
2019-05-17T17:46:22.639Z,24.25
2019-05-17T17:51:29.878Z,23.25
2019-05-17T17:56:37.690Z,23.15
2019-05-17T18:01:45.605Z,23.83
2019-05-17T18:06:53.589Z,23.30
2019-05-17T18:12:00.922Z,24.77
2019-05-17T18:17:08.544Z,22.98
2019-05-17T18:22:16.527Z,23.65
2019-05-17T18:27:25.283Z,23.55
2019-05-17T18:32:32.608Z,22.17
2019-05-17T18:37:41.338Z,22.65
2019-05-17T18:42:48.567Z,22.30
2019-05-17T18:47:56.374Z,22.75
2019-05-17T18:53:04.642Z,24.45
2019-05-17T18:58:13.692Z,24.52
2019-05-17T19:03:21.636Z,25.40
2019-05-17T19:08:30.006Z,23.07
2019-05-17T19:13:37.460Z,22.82
2019-05-17T19:18:45.669Z,23.02
2019-05-17T19:23:53.870Z,23.75
2019-05-17T19:29:02.824Z,22.58
2019-05-17T19:34:11.054Z,24.25
2019-05-17T19:39:18.693Z,23.92
2019-05-17T19:44:27.339Z,22.05
2019-05-17T19:49:34.882Z,24.23
2019-05-17T19:54:42.709Z,23.67
2019-05-17T19:59:51.524Z,22.60
2019-05-17T20:04:59.002Z,23.42
2019-05-17T20:10:08.511Z,23.30
2019-05-17T20:15:18.408Z,24.57
2019-05-17T20:20:26.012Z,23.75
2019-05-17T20:25:33.915Z,24.18
2019-05-17T20:30:41.404Z,24.50
2019-05-17T20:35:49.267Z,24.32
2019-05-17T20:40:58.752Z,23.52
2019-05-17T20:46:06.883Z,23.90
2019-05-17T20:51:13.848Z,25.35
2019-05-17T20:56:32.399Z,24.80
2019-05-17T21:01:30.870Z,24.57
2019-05-17T21:06:38.806Z,26.27
2019-05-17T21:11:46.406Z,27.35
2019-05-17T21:16:54.836Z,27.22
2019-05-17T21:22:02.250Z,27.10
2019-05-17T21:27:10.595Z,27.40
2019-05-17T21:32:18.435Z,27.98
2019-05-17T21:37:25.640Z,27.02
2019-05-17T21:42:34.743Z,27.45
2019-05-17T21:47:42.569Z,28.45
2019-05-17T21:52:51.431Z,27.30
2019-05-17T21:57:59.733Z,27.20
2019-05-17T22:03:07.485Z,26.05
2019-05-17T22:08:15.291Z,31.40
2019-05-17T22:13:23.432Z,31.10
2019-05-17T22:18:30.465Z,30.37
2019-05-17T22:23:37.860Z,29.40
2019-05-17T22:28:46.450Z,27.87
2019-05-17T22:33:54.747Z,27.65
2019-05-17T22:39:03.021Z,29.52
2019-05-17T22:44:12.110Z,29.05
2019-05-17T22:49:20.433Z,30.92
2019-05-17T22:54:28.948Z,30.43
2019-05-17T22:59:36.379Z,30.45
2019-05-17T23:04:44.663Z,31.52
2019-05-17T23:09:52.531Z,31.05
2019-05-17T23:15:01.543Z,33.10
2019-05-17T23:31:17.130Z,29.85
2019-05-17T23:36:25.434Z,32.65
2019-05-17T23:41:34.354Z,31.05
2019-05-17T23:46:42.661Z,29.57
2019-05-17T23:51:51.042Z,28.55
2019-05-17T23:56:59.629Z,29.67
